createdAt,value
2017-10-26T00:00:46.914Z,0
2017-10-26T00:01:55.541Z,0
2017-10-26T00:03:04.176Z,0
2017-10-26T00:04:12.803Z,0
2017-10-26T00:05:21.427Z,0
2017-10-26T00:06:30.060Z,0
2017-10-26T00:07:38.687Z,0
2017-10-26T00:08:47.324Z,0
2017-10-26T00:09:55.951Z,0
2017-10-26T00:11:04.580Z,0
2017-10-26T00:12:13.212Z,0
2017-10-26T00:13:21.833Z,0
2017-10-26T00:14:30.470Z,0
2017-10-26T00:15:39.097Z,0
2017-10-26T00:16:47.720Z,0
2017-10-26T00:17:56.355Z,0
2017-10-26T00:19:04.983Z,0
2017-10-26T00:20:13.609Z,0
2017-10-26T00:21:22.242Z,0
2017-10-26T00:22:30.870Z,0
2017-10-26T00:23:39.820Z,0
2017-10-26T00:24:48.453Z,0
2017-10-26T00:25:57.084Z,0
2017-10-26T00:27:05.705Z,0
2017-10-26T00:28:14.342Z,0
2017-10-26T00:29:22.969Z,0
2017-10-26T00:30:31.602Z,0
2017-10-26T00:31:40.228Z,0
2017-10-26T00:32:48.850Z,0
2017-10-26T00:33:57.485Z,0
2017-10-26T00:35:06.443Z,0
2017-10-26T00:36:15.078Z,0
2017-10-26T00:37:24.037Z,0
2017-10-26T00:38:32.672Z,0
2017-10-26T00:39:41.295Z,0
2017-10-26T00:40:49.925Z,0
2017-10-26T00:41:58.547Z,0
2017-10-26T00:43:07.179Z,0
2017-10-26T00:44:15.807Z,0
2017-10-26T00:45:24.437Z,0
2017-10-26T00:46:33.063Z,0
2017-10-26T00:47:41.691Z,0
2017-10-26T00:48:50.321Z,0
2017-10-26T00:49:58.953Z,0
2017-10-26T00:51:07.578Z,0
2017-10-26T00:52:16.210Z,0
2017-10-26T00:53:24.838Z,0
2017-10-26T00:54:33.460Z,0
2017-10-26T00:55:42.087Z,0
2017-10-26T00:56:50.716Z,0
2017-10-26T00:57:59.346Z,0
2017-10-26T00:59:07.979Z,0
2017-10-26T01:00:16.599Z,0
2017-10-26T01:01:25.232Z,0
2017-10-26T01:02:34.195Z,0
2017-10-26T01:03:42.820Z,0
2017-10-26T01:04:51.455Z,0
2017-10-26T01:06:00.080Z,0
2017-10-26T01:07:08.706Z,0
2017-10-26T01:08:17.340Z,0
2017-10-26T01:09:25.961Z,0
2017-10-26T01:10:34.592Z,0
2017-10-26T01:11:43.216Z,0
2017-10-26T01:12:51.853Z,0
2017-10-26T01:14:00.478Z,0
2017-10-26T01:15:09.100Z,0
2017-10-26T01:16:17.727Z,0
2017-10-26T01:17:26.359Z,0
2017-10-26T01:18:34.979Z,0
2017-10-26T01:19:43.607Z,0
2017-10-26T01:20:52.240Z,0
2017-10-26T01:22:00.862Z,0
2017-10-26T01:23:09.489Z,0
2017-10-26T01:24:18.119Z,0
2017-10-26T01:25:26.744Z,0
2017-10-26T01:26:35.380Z,0
2017-10-26T01:27:43.999Z,0
2017-10-26T01:28:52.629Z,0
2017-10-26T01:30:01.262Z,0
2017-10-26T01:31:09.888Z,0
2017-10-26T01:32:18.870Z,0
2017-10-26T01:33:27.502Z,0
2017-10-26T01:34:36.133Z,0
2017-10-26T01:35:44.761Z,0
2017-10-26T01:36:53.396Z,0
2017-10-26T01:38:02.022Z,0
2017-10-26T01:39:10.649Z,0
2017-10-26T01:40:19.283Z,0
2017-10-26T01:41:27.908Z,0
2017-10-26T01:42:36.535Z,0
2017-10-26T01:43:45.160Z,0
2017-10-26T01:44:53.788Z,0
2017-10-26T01:46:02.426Z,0
2017-10-26T01:47:11.383Z,0
2017-10-26T01:48:20.009Z,0
2017-10-26T01:49:28.645Z,0
2017-10-26T01:50:37.273Z,0
2017-10-26T01:51:45.905Z,0
2017-10-26T01:52:54.535Z,0
2017-10-26T01:54:03.165Z,0
2017-10-26T01:55:11.784Z,0
2017-10-26T01:56:20.416Z,0
2017-10-26T01:57:29.037Z,0
2017-10-26T01:58:37.997Z,0
2017-10-26T01:59:46.624Z,0
2017-10-26T02:00:55.250Z,0
2017-10-26T02:02:03.884Z,0
2017-10-26T02:03:12.505Z,0
2017-10-26T02:04:21.141Z,0
2017-10-26T02:05:29.766Z,0
2017-10-26T02:06:38.390Z,0
2017-10-26T02:07:47.027Z,0
2017-10-26T02:08:55.670Z,0
2017-10-26T02:10:04.279Z,0
2017-10-26T02:11:12.902Z,0
2017-10-26T02:12:21.529Z,0
2017-10-26T02:13:30.168Z,0
2017-10-26T02:14:38.791Z,0
2017-10-26T02:15:47.417Z,0
2017-10-26T02:16:56.052Z,0
2017-10-26T02:18:04.683Z,0
2017-10-26T02:19:13.301Z,0
2017-10-26T02:20:21.930Z,0
2017-10-26T02:21:30.562Z,0
2017-10-26T02:22:39.183Z,0
2017-10-26T02:23:47.814Z,0
2017-10-26T02:24:56.442Z,0
2017-10-26T02:26:05.075Z,0
2017-10-26T02:27:13.700Z,0
2017-10-26T02:28:22.325Z,0
2017-10-26T02:29:30.957Z,0
2017-10-26T02:30:39.598Z,0
2017-10-26T02:31:48.207Z,0
2017-10-26T02:32:56.831Z,0
2017-10-26T02:34:05.489Z,0
2017-10-26T02:35:14.780Z,0
2017-10-26T02:36:23.411Z,0
2017-10-26T02:37:32.043Z,0
2017-10-26T02:38:40.670Z,0
2017-10-26T02:39:49.305Z,0
2017-10-26T02:40:57.931Z,0
2017-10-26T02:42:06.560Z,0
2017-10-26T02:43:15.193Z,0
2017-10-26T02:44:23.816Z,0
2017-10-26T02:45:32.449Z,0
2017-10-26T02:46:41.077Z,0
2017-10-26T02:47:49.701Z,0
2017-10-26T02:48:58.326Z,0
2017-10-26T02:50:06.957Z,0
2017-10-26T02:51:15.588Z,0
2017-10-26T02:52:24.551Z,0
2017-10-26T02:53:33.186Z,0
2017-10-26T02:54:41.807Z,0
2017-10-26T02:55:50.441Z,0
2017-10-26T02:56:59.069Z,0
2017-10-26T02:58:07.705Z,0
2017-10-26T02:59:16.329Z,0
2017-10-26T03:00:24.952Z,0
2017-10-26T03:01:33.585Z,0
2017-10-26T03:02:42.206Z,0
2017-10-26T03:03:50.836Z,0
2017-10-26T03:04:59.468Z,0
2017-10-26T03:06:08.091Z,0
2017-10-26T03:07:16.716Z,0
2017-10-26T03:08:25.352Z,0
2017-10-26T03:09:33.976Z,0
2017-10-26T03:10:42.606Z,0
2017-10-26T03:11:51.223Z,0
2017-10-26T03:12:59.864Z,0
2017-10-26T03:14:08.488Z,0
2017-10-26T03:15:17.119Z,0
2017-10-26T03:16:25.745Z,0
2017-10-26T03:17:34.380Z,0
2017-10-26T03:18:43.005Z,0
2017-10-26T03:19:51.634Z,0
2017-10-26T03:21:00.271Z,0
2017-10-26T03:22:08.900Z,0
2017-10-26T03:23:17.523Z,0
2017-10-26T03:24:26.150Z,0
2017-10-26T03:25:35.109Z,0
2017-10-26T03:26:43.742Z,0
2017-10-26T03:27:52.370Z,0
2017-10-26T03:29:01.328Z,0
2017-10-26T03:30:09.967Z,0
2017-10-26T03:31:18.595Z,0
2017-10-26T03:32:27.221Z,0
2017-10-26T03:33:35.849Z,0
2017-10-26T03:34:44.482Z,0
2017-10-26T03:35:53.098Z,0
2017-10-26T03:37:01.727Z,0
2017-10-26T03:38:10.351Z,0
2017-10-26T03:39:18.986Z,0
2017-10-26T03:40:27.614Z,0
2017-10-26T03:41:36.239Z,0
2017-10-26T03:42:44.885Z,0
2017-10-26T03:43:53.498Z,0
2017-10-26T03:45:02.121Z,0
2017-10-26T03:46:10.745Z,0
2017-10-26T03:47:19.372Z,0
2017-10-26T03:48:27.994Z,0
2017-10-26T03:49:36.623Z,0
2017-10-26T03:50:45.265Z,0
2017-10-26T03:51:53.880Z,0
2017-10-26T03:53:02.517Z,0
2017-10-26T03:54:11.139Z,0
2017-10-26T03:55:19.772Z,0
2017-10-26T03:56:28.401Z,0
2017-10-26T03:57:37.019Z,0
2017-10-26T03:58:45.649Z,0
2017-10-26T03:59:54.277Z,0
2017-10-26T04:01:02.907Z,0
2017-10-26T04:02:11.539Z,0
2017-10-26T04:03:20.161Z,0
2017-10-26T04:04:28.790Z,0
2017-10-26T04:05:37.419Z,0
2017-10-26T04:06:46.038Z,0
2017-10-26T04:07:54.673Z,0
2017-10-26T04:09:03.303Z,0
2017-10-26T04:10:11.929Z,0
2017-10-26T04:11:20.556Z,0
2017-10-26T04:12:29.179Z,0
2017-10-26T04:13:37.806Z,0
2017-10-26T04:14:46.437Z,0
2017-10-26T04:15:55.057Z,0
2017-10-26T04:17:03.684Z,0
2017-10-26T04:18:12.314Z,0
2017-10-26T04:19:20.942Z,0
2017-10-26T04:20:29.567Z,0
2017-10-26T04:21:38.202Z,0
2017-10-26T04:22:46.829Z,0
2017-10-26T04:23:55.456Z,0
2017-10-26T04:25:04.076Z,0
2017-10-26T04:26:12.706Z,0
2017-10-26T04:27:21.336Z,0
2017-10-26T04:28:29.963Z,0
2017-10-26T04:29:38.595Z,0
2017-10-26T04:30:47.215Z,0
2017-10-26T04:31:55.847Z,0
2017-10-26T04:33:04.474Z,0
2017-10-26T04:34:13.428Z,0
2017-10-26T04:35:22.389Z,0
2017-10-26T04:36:31.018Z,0
2017-10-26T04:37:39.986Z,0
2017-10-26T04:38:48.611Z,0
2017-10-26T04:39:57.233Z,0
2017-10-26T04:41:05.864Z,0
2017-10-26T04:42:14.494Z,0
2017-10-26T04:43:23.118Z,0
2017-10-26T04:44:31.745Z,0
2017-10-26T04:45:40.376Z,0
2017-10-26T04:46:49.002Z,0
2017-10-26T04:47:57.629Z,0
2017-10-26T04:49:06.266Z,0
2017-10-26T04:50:14.889Z,0
2017-10-26T04:51:23.523Z,0
2017-10-26T04:52:32.140Z,0
2017-10-26T04:53:40.772Z,0
2017-10-26T04:54:49.403Z,0
2017-10-26T04:55:58.032Z,0
2017-10-26T04:57:06.655Z,0
2017-10-26T04:58:15.287Z,0
2017-10-26T04:59:23.915Z,0
2017-10-26T05:00:32.546Z,0
2017-10-26T05:01:41.163Z,0
2017-10-26T05:02:49.793Z,0
2017-10-26T05:03:58.426Z,0
2017-10-26T05:05:07.053Z,0
2017-10-26T05:06:15.701Z,0
2017-10-26T05:07:24.310Z,0
2017-10-26T05:08:33.275Z,0
2017-10-26T05:09:41.907Z,0
2017-10-26T05:10:50.528Z,0
2017-10-26T05:11:59.161Z,0
2017-10-26T05:13:07.791Z,0
2017-10-26T05:14:16.419Z,0
2017-10-26T05:15:25.044Z,0
2017-10-26T05:16:33.679Z,0
2017-10-26T05:17:42.304Z,0
2017-10-26T05:18:50.929Z,0
2017-10-26T05:19:59.563Z,0
2017-10-26T05:21:08.184Z,0
2017-10-26T05:22:16.822Z,0
2017-10-26T05:23:25.443Z,0
2017-10-26T05:24:34.070Z,0
2017-10-26T05:25:42.704Z,0
2017-10-26T05:26:51.327Z,0
2017-10-26T05:27:59.953Z,0
2017-10-26T05:29:08.585Z,0
2017-10-26T05:30:17.213Z,0
2017-10-26T05:31:25.838Z,0
2017-10-26T05:32:34.484Z,0
2017-10-26T05:33:43.096Z,0
2017-10-26T05:34:51.718Z,0
2017-10-26T05:36:00.346Z,0
2017-10-26T05:37:08.973Z,0
2017-10-26T05:38:17.608Z,0
2017-10-26T05:39:26.234Z,0
2017-10-26T05:40:34.861Z,0
2017-10-26T05:41:43.487Z,0
2017-10-26T05:42:52.118Z,0
2017-10-26T05:44:00.740Z,0
2017-10-26T05:45:09.367Z,0
2017-10-26T05:46:17.997Z,0
2017-10-26T05:47:26.620Z,4
2017-10-26T05:48:35.249Z,4
2017-10-26T05:49:44.366Z,4
2017-10-26T05:50:53.000Z,4
2017-10-26T05:52:01.632Z,0
2017-10-26T05:53:10.248Z,4
2017-10-26T05:54:18.878Z,4
2017-10-26T05:55:27.511Z,4
2017-10-26T05:56:36.133Z,8
2017-10-26T05:57:44.768Z,8
2017-10-26T05:58:53.393Z,8
2017-10-26T06:00:02.026Z,8
2017-10-26T06:01:10.656Z,8
2017-10-26T06:02:19.279Z,12
2017-10-26T06:03:27.909Z,16
2017-10-26T06:04:36.870Z,12
2017-10-26T06:05:45.508Z,16
2017-10-26T06:06:54.149Z,24
2017-10-26T06:08:02.758Z,28
2017-10-26T06:09:11.391Z,28
2017-10-26T06:10:20.019Z,36
2017-10-26T06:11:28.644Z,40
2017-10-26T06:12:37.275Z,40
2017-10-26T06:13:45.905Z,40
2017-10-26T06:14:54.533Z,44
2017-10-26T06:16:03.156Z,52
2017-10-26T06:17:11.786Z,56
2017-10-26T06:18:20.417Z,60
2017-10-26T06:19:29.046Z,60
2017-10-26T06:20:37.667Z,72
2017-10-26T06:21:46.294Z,84
2017-10-26T06:22:54.927Z,88
2017-10-26T06:24:03.548Z,92
2017-10-26T06:25:12.180Z,100
2017-10-26T06:26:20.810Z,120
2017-10-26T06:27:29.438Z,124
2017-10-26T06:28:38.061Z,144
2017-10-26T06:29:46.695Z,156
2017-10-26T06:30:55.320Z,156
2017-10-26T06:32:03.952Z,148
2017-10-26T06:33:12.586Z,132
2017-10-26T06:34:21.205Z,144
2017-10-26T06:35:29.835Z,144
2017-10-26T06:36:38.464Z,164
2017-10-26T06:37:47.087Z,188
2017-10-26T06:38:55.722Z,208
2017-10-26T06:40:04.352Z,220
2017-10-26T06:41:12.982Z,208
2017-10-26T06:42:21.613Z,188
2017-10-26T06:43:30.242Z,216
2017-10-26T06:44:38.867Z,200
2017-10-26T06:45:47.500Z,220
2017-10-26T06:46:56.129Z,224
2017-10-26T06:48:04.747Z,220
2017-10-26T06:49:13.378Z,220
2017-10-26T06:50:22.003Z,208
2017-10-26T06:51:30.641Z,240
2017-10-26T06:52:39.265Z,284
2017-10-26T06:53:47.889Z,352
2017-10-26T06:54:56.519Z,364
2017-10-26T06:56:05.143Z,316
2017-10-26T06:57:13.780Z,264
2017-10-26T06:58:22.410Z,256
2017-10-26T06:59:31.371Z,276
2017-10-26T07:00:40.007Z,332
2017-10-26T07:01:48.636Z,436
2017-10-26T07:02:57.259Z,592
2017-10-26T07:04:05.889Z,696
2017-10-26T07:05:14.515Z,844
2017-10-26T07:06:23.150Z,892
2017-10-26T07:07:31.772Z,1028
2017-10-26T07:08:40.401Z,1152
2017-10-26T07:09:49.038Z,1164
2017-10-26T07:10:57.665Z,1236
2017-10-26T07:12:06.625Z,1136
2017-10-26T07:13:15.259Z,1140
2017-10-26T07:14:23.891Z,1080
2017-10-26T07:15:32.511Z,1064
2017-10-26T07:16:41.140Z,1048
2017-10-26T07:17:49.770Z,1060
2017-10-26T07:18:58.732Z,1056
2017-10-26T07:20:07.360Z,1076
2017-10-26T07:21:15.986Z,1072
2017-10-26T07:22:24.619Z,1108
2017-10-26T07:23:33.249Z,1132
2017-10-26T07:24:41.868Z,1164
2017-10-26T07:25:50.499Z,1208
2017-10-26T07:26:59.139Z,1236
2017-10-26T07:28:08.094Z,1280
2017-10-26T07:29:16.724Z,1364
2017-10-26T07:30:25.684Z,1496
2017-10-26T07:31:34.309Z,1620
2017-10-26T07:32:42.945Z,1696
2017-10-26T07:33:51.565Z,1744
2017-10-26T07:35:00.196Z,1752
2017-10-26T07:36:08.826Z,1748
2017-10-26T07:37:17.449Z,1744
2017-10-26T07:38:26.085Z,1704
2017-10-26T07:39:34.711Z,1720
2017-10-26T07:40:43.339Z,1716
2017-10-26T07:41:51.993Z,1700
2017-10-26T07:43:00.624Z,1656
2017-10-26T07:44:09.248Z,1632
2017-10-26T07:45:18.029Z,1628
2017-10-26T07:46:26.667Z,1656
2017-10-26T07:47:35.286Z,1628
2017-10-26T07:48:43.916Z,1592
2017-10-26T07:49:52.541Z,1556
2017-10-26T07:51:01.170Z,1524
2017-10-26T07:52:09.806Z,1460
2017-10-26T07:53:18.440Z,1408
2017-10-26T07:54:27.389Z,1388
2017-10-26T07:55:36.010Z,1428
2017-10-26T07:56:44.644Z,1464
2017-10-26T07:57:53.274Z,1488
2017-10-26T07:59:01.903Z,1476
2017-10-26T08:00:10.528Z,1560
2017-10-26T08:01:19.166Z,1688
2017-10-26T08:02:27.793Z,1704
2017-10-26T08:03:36.428Z,1688
2017-10-26T08:04:45.049Z,1804
2017-10-26T08:05:53.681Z,1800
2017-10-26T08:07:02.313Z,1844
2017-10-26T08:08:10.940Z,1976
2017-10-26T08:09:19.569Z,2016
2017-10-26T08:10:28.202Z,1872
2017-10-26T08:11:36.828Z,1992
2017-10-26T08:12:45.455Z,1916
2017-10-26T08:13:54.093Z,1776
2017-10-26T08:15:02.720Z,1952
2017-10-26T08:16:11.350Z,1956
2017-10-26T08:17:19.978Z,1624
2017-10-26T08:18:28.604Z,1556
2017-10-26T08:19:37.240Z,1836
2017-10-26T08:20:45.868Z,1848
2017-10-26T08:21:54.494Z,1896
2017-10-26T08:23:03.130Z,2124
2017-10-26T08:24:12.080Z,2336
2017-10-26T08:25:20.711Z,2424
2017-10-26T08:26:29.339Z,2468
2017-10-26T08:27:37.963Z,2124
2017-10-26T08:28:46.600Z,2568
2017-10-26T08:29:55.553Z,2416
2017-10-26T08:31:04.196Z,2276
2017-10-26T08:32:12.813Z,2164
2017-10-26T08:33:21.447Z,2204
2017-10-26T08:34:30.086Z,2492
2017-10-26T08:35:38.715Z,2608
2017-10-26T08:36:47.340Z,2604
2017-10-26T08:37:55.976Z,2728
2017-10-26T08:39:04.604Z,2592
2017-10-26T08:40:13.231Z,2568
2017-10-26T08:41:21.864Z,2576
2017-10-26T08:42:30.491Z,2572
2017-10-26T08:43:39.115Z,2572
2017-10-26T08:44:47.747Z,2484
2017-10-26T08:45:56.369Z,2632
2017-10-26T08:47:05.007Z,2536
2017-10-26T08:48:13.639Z,2432
2017-10-26T08:49:22.266Z,2452
2017-10-26T08:50:30.913Z,2180
2017-10-26T08:51:39.526Z,2564
2017-10-26T08:52:48.153Z,2260
2017-10-26T08:53:56.775Z,2332
2017-10-26T08:55:05.403Z,2128
2017-10-26T08:56:14.056Z,2516
2017-10-26T08:57:22.992Z,2332
2017-10-26T08:58:31.621Z,2168
2017-10-26T08:59:40.259Z,1780
2017-10-26T09:00:49.213Z,1844
2017-10-26T09:01:57.846Z,2124
2017-10-26T09:03:06.478Z,1948
2017-10-26T09:04:15.105Z,1980
2017-10-26T09:05:23.741Z,2120
2017-10-26T09:06:32.367Z,1940
2017-10-26T09:07:40.997Z,2036
2017-10-26T09:08:49.635Z,1988
2017-10-26T09:09:58.265Z,2092
2017-10-26T09:11:06.892Z,2180
2017-10-26T09:12:15.526Z,2092
2017-10-26T09:13:24.157Z,2112
2017-10-26T09:14:32.780Z,1904
2017-10-26T09:15:41.416Z,1796
2017-10-26T09:16:50.042Z,1804
2017-10-26T09:17:58.677Z,1724
2017-10-26T09:19:07.304Z,1996
2017-10-26T09:20:15.934Z,1996
2017-10-26T09:21:24.566Z,2068
2017-10-26T09:22:33.198Z,1896
2017-10-26T09:23:41.827Z,2336
2017-10-26T09:24:50.456Z,2400
2017-10-26T09:25:59.090Z,3020
2017-10-26T09:27:07.711Z,2616
2017-10-26T09:28:16.343Z,2628
2017-10-26T09:29:24.976Z,2692
2017-10-26T09:30:33.613Z,2604
2017-10-26T09:31:42.570Z,2420
2017-10-26T09:32:51.191Z,2712
2017-10-26T09:33:59.824Z,2868
2017-10-26T09:35:08.457Z,2596
2017-10-26T09:36:17.081Z,2660
2017-10-26T09:37:25.708Z,2672
2017-10-26T09:38:34.345Z,2860
2017-10-26T09:39:42.970Z,2508
2017-10-26T09:40:51.597Z,2736
2017-10-26T09:42:00.233Z,2940
2017-10-26T09:43:08.859Z,2684
2017-10-26T09:44:17.492Z,3020
2017-10-26T09:45:26.114Z,3120
2017-10-26T09:46:34.748Z,2856
2017-10-26T09:47:43.380Z,2800
2017-10-26T09:48:52.009Z,3516
2017-10-26T09:50:00.640Z,3716
2017-10-26T09:51:09.273Z,3968
2017-10-26T09:52:17.900Z,4304
2017-10-26T09:53:26.533Z,4420
2017-10-26T09:54:35.155Z,4608
2017-10-26T09:55:43.787Z,4836
2017-10-26T09:56:52.757Z,5112
2017-10-26T09:58:01.390Z,4340
2017-10-26T09:59:10.027Z,3784
2017-10-26T10:00:18.650Z,4292
2017-10-26T10:01:27.282Z,3500
2017-10-26T10:02:35.916Z,3228
2017-10-26T10:03:44.540Z,3084
2017-10-26T10:04:53.177Z,2820
2017-10-26T10:06:01.807Z,2492
2017-10-26T10:07:10.437Z,2416
2017-10-26T10:08:19.065Z,2212
2017-10-26T10:09:27.703Z,2808
2017-10-26T10:10:36.331Z,3328
2017-10-26T10:11:45.286Z,3276
2017-10-26T10:12:53.928Z,3472
2017-10-26T10:14:02.547Z,3556
2017-10-26T10:15:11.190Z,3560
2017-10-26T10:16:19.819Z,3364
2017-10-26T10:17:28.442Z,3008
2017-10-26T10:18:37.078Z,3552
2017-10-26T10:19:45.705Z,3788
2017-10-26T10:20:54.336Z,4040
2017-10-26T10:22:02.973Z,4492
2017-10-26T10:23:11.608Z,4448
2017-10-26T10:24:20.236Z,4668
2017-10-26T10:25:28.874Z,4668
2017-10-26T10:26:37.508Z,4144
2017-10-26T10:27:46.129Z,4044
2017-10-26T10:28:54.761Z,3976
2017-10-26T10:30:03.724Z,4216
2017-10-26T10:31:12.365Z,4568
2017-10-26T10:32:20.994Z,4440
2017-10-26T10:33:29.623Z,4024
2017-10-26T10:34:38.258Z,4760
2017-10-26T10:35:46.893Z,4632
2017-10-26T10:36:55.524Z,4688
2017-10-26T10:38:04.156Z,4520
2017-10-26T10:39:12.791Z,4572
2017-10-26T10:40:21.416Z,4916
2017-10-26T10:41:30.053Z,4888
2017-10-26T10:42:38.688Z,4104
2017-10-26T10:43:47.318Z,4104
2017-10-26T10:44:55.975Z,4276
2017-10-26T10:46:04.578Z,4448
2017-10-26T10:47:13.216Z,4736
2017-10-26T10:48:21.850Z,4912
2017-10-26T10:49:30.473Z,5148
2017-10-26T10:50:39.109Z,5460
2017-10-26T10:51:47.739Z,5320
2017-10-26T10:52:56.378Z,5460
2017-10-26T10:54:05.013Z,6112
2017-10-26T10:55:13.639Z,5964
2017-10-26T10:56:22.271Z,5556
2017-10-26T10:57:30.900Z,5204
2017-10-26T10:58:39.545Z,4960
2017-10-26T10:59:48.169Z,5240
2017-10-26T11:00:56.800Z,4692
2017-10-26T11:02:05.431Z,4112
2017-10-26T11:03:14.067Z,3908
2017-10-26T11:04:22.695Z,3712
2017-10-26T11:05:31.329Z,3748
2017-10-26T11:06:39.962Z,4212
2017-10-26T11:07:48.595Z,4604
2017-10-26T11:08:57.227Z,4884
2017-10-26T11:10:05.873Z,4784
2017-10-26T11:11:14.504Z,4604
2017-10-26T11:12:23.144Z,4740
2017-10-26T11:13:31.773Z,4744
2017-10-26T11:14:40.407Z,4576
2017-10-26T11:15:49.044Z,4448
2017-10-26T11:16:57.670Z,4300
2017-10-26T11:18:06.370Z,4304
2017-10-26T11:19:15.147Z,4320
2017-10-26T11:20:23.804Z,3948
2017-10-26T11:21:32.446Z,3692
2017-10-26T11:22:41.088Z,3612
2017-10-26T11:23:49.717Z,3784
2017-10-26T11:24:58.348Z,3692
2017-10-26T11:26:06.991Z,3820
2017-10-26T11:27:15.613Z,3956
2017-10-26T11:28:24.255Z,3832
2017-10-26T11:29:33.474Z,3620
2017-10-26T11:30:42.126Z,4024
2017-10-26T11:31:50.774Z,4272
2017-10-26T11:32:59.411Z,4052
2017-10-26T11:34:08.366Z,3844
2017-10-26T11:35:17.011Z,3624
2017-10-26T11:36:25.649Z,3880
2017-10-26T11:37:34.281Z,4028
2017-10-26T11:38:42.917Z,4204
2017-10-26T11:39:51.616Z,4280
2017-10-26T11:41:00.619Z,4356
2017-10-26T11:42:09.593Z,4288
2017-10-26T11:43:18.223Z,4220
2017-10-26T11:44:26.862Z,4176
2017-10-26T11:45:35.492Z,3940
2017-10-26T11:46:45.175Z,3796
2017-10-26T11:47:55.450Z,3528
2017-10-26T11:49:04.418Z,3664
2017-10-26T11:50:13.054Z,4084
2017-10-26T11:51:21.681Z,4296
2017-10-26T11:52:30.314Z,4256
2017-10-26T11:53:38.955Z,4560
2017-10-26T11:54:47.585Z,4788
2017-10-26T11:55:56.215Z,5012
2017-10-26T11:57:04.847Z,5144
2017-10-26T11:58:13.472Z,5248
2017-10-26T11:59:22.113Z,5460
2017-10-26T12:00:30.745Z,5492
2017-10-26T12:01:39.376Z,5196
2017-10-26T12:02:48.016Z,5104
2017-10-26T12:03:56.644Z,4820
2017-10-26T12:05:05.282Z,4704
2017-10-26T12:06:13.924Z,4708
2017-10-26T12:07:22.546Z,4912
2017-10-26T12:08:31.168Z,4716
2017-10-26T12:09:39.801Z,4592
2017-10-26T12:10:48.432Z,4492
2017-10-26T12:11:57.071Z,4464
2017-10-26T12:13:05.702Z,4444
2017-10-26T12:14:14.331Z,4460
2017-10-26T12:15:22.968Z,4316
2017-10-26T12:16:31.604Z,4320
2017-10-26T12:17:40.230Z,4332
2017-10-26T12:18:48.866Z,4328
2017-10-26T12:19:57.496Z,4420
2017-10-26T12:21:06.137Z,4376
2017-10-26T12:22:14.770Z,4504
2017-10-26T12:23:23.409Z,4408
2017-10-26T12:24:32.374Z,4448
2017-10-26T12:25:40.998Z,4444
2017-10-26T12:26:49.639Z,4380
2017-10-26T12:27:58.270Z,4228
2017-10-26T12:29:06.900Z,4076
2017-10-26T12:30:15.541Z,3928
2017-10-26T12:31:24.173Z,3860
2017-10-26T12:32:32.802Z,3792
2017-10-26T12:33:41.433Z,3628
2017-10-26T12:34:50.069Z,3432
2017-10-26T12:35:58.694Z,3432
2017-10-26T12:37:07.332Z,3352
2017-10-26T12:38:15.970Z,3176
2017-10-26T12:39:24.593Z,3244
2017-10-26T12:40:33.237Z,3264
2017-10-26T12:41:41.863Z,3224
2017-10-26T12:42:50.498Z,3164
2017-10-26T12:43:59.133Z,3136
2017-10-26T12:45:07.758Z,3228
2017-10-26T12:46:16.390Z,3416
2017-10-26T12:47:25.022Z,3744
2017-10-26T12:48:33.666Z,3472
2017-10-26T12:49:42.293Z,3344
2017-10-26T12:50:50.924Z,3424
2017-10-26T12:51:59.559Z,3552
2017-10-26T12:53:08.194Z,3536
2017-10-26T12:54:16.821Z,3656
2017-10-26T12:55:25.456Z,3748
2017-10-26T12:56:34.089Z,3932
2017-10-26T12:57:42.724Z,3912
2017-10-26T12:58:51.354Z,3908
2017-10-26T12:59:59.985Z,3532
2017-10-26T13:01:08.623Z,3236
2017-10-26T13:02:17.254Z,3332
2017-10-26T13:03:25.879Z,3364
2017-10-26T13:04:34.519Z,3492
2017-10-26T13:05:43.154Z,3580
2017-10-26T13:06:51.777Z,3668
2017-10-26T13:08:00.743Z,3576
2017-10-26T13:09:09.378Z,3408
2017-10-26T13:10:18.011Z,3184
2017-10-26T13:11:26.648Z,3000
2017-10-26T13:12:35.273Z,3040
2017-10-26T13:13:43.908Z,2880
2017-10-26T13:14:52.541Z,2636
2017-10-26T13:16:01.160Z,2668
2017-10-26T13:17:09.804Z,2788
2017-10-26T13:18:18.430Z,2740
2017-10-26T13:19:27.058Z,2752
2017-10-26T13:20:35.688Z,2820
2017-10-26T13:21:44.326Z,2904
2017-10-26T13:22:52.952Z,2864
2017-10-26T13:24:01.589Z,2960
2017-10-26T13:25:10.213Z,3044
2017-10-26T13:26:18.849Z,3020
2017-10-26T13:27:27.480Z,3072
2017-10-26T13:28:36.109Z,3032
2017-10-26T13:29:44.736Z,3008
2017-10-26T13:30:53.374Z,3012
2017-10-26T13:32:02.005Z,3328
2017-10-26T13:33:10.631Z,3124
2017-10-26T13:34:19.270Z,3096
2017-10-26T13:35:27.899Z,3172
2017-10-26T13:36:36.530Z,3280
2017-10-26T13:37:45.493Z,3204
2017-10-26T13:38:54.121Z,3200
2017-10-26T13:40:02.758Z,3196
2017-10-26T13:41:11.387Z,3044
2017-10-26T13:42:20.021Z,2944
2017-10-26T13:43:28.659Z,2612
2017-10-26T13:44:37.291Z,2428
2017-10-26T13:45:45.918Z,2356
2017-10-26T13:46:54.547Z,2252
2017-10-26T13:48:03.178Z,2236
2017-10-26T13:49:11.817Z,2264
2017-10-26T13:50:20.448Z,2332
2017-10-26T13:51:29.077Z,2504
2017-10-26T13:52:37.713Z,2652
2017-10-26T13:53:46.340Z,2760
2017-10-26T13:54:54.978Z,2964
2017-10-26T13:56:03.607Z,2780
2017-10-26T13:57:12.234Z,2604
2017-10-26T13:58:20.877Z,2588
2017-10-26T13:59:29.502Z,2644
2017-10-26T14:00:38.135Z,2720
2017-10-26T14:01:46.782Z,2712
2017-10-26T14:02:55.406Z,2628
2017-10-26T14:04:04.034Z,2592
2017-10-26T14:05:12.671Z,2616
2017-10-26T14:06:21.308Z,2532
2017-10-26T14:07:29.934Z,2616
2017-10-26T14:08:38.570Z,2688
2017-10-26T14:09:47.200Z,2652
2017-10-26T14:10:55.839Z,2592
2017-10-26T14:12:04.471Z,2488
2017-10-26T14:13:13.102Z,2364
2017-10-26T14:14:21.736Z,2264
2017-10-26T14:15:30.371Z,2168
2017-10-26T14:16:38.995Z,2100
2017-10-26T14:17:47.629Z,2012
2017-10-26T14:18:56.264Z,1956
2017-10-26T14:20:04.887Z,1884
2017-10-26T14:21:13.523Z,1808
2017-10-26T14:22:22.157Z,1736
2017-10-26T14:23:30.791Z,1660
2017-10-26T14:24:39.425Z,1588
2017-10-26T14:25:48.053Z,1544
2017-10-26T14:26:57.038Z,1556
2017-10-26T14:28:05.672Z,1580
2017-10-26T14:29:14.297Z,1608
2017-10-26T14:30:22.931Z,1664
2017-10-26T14:31:31.568Z,1716
2017-10-26T14:32:40.203Z,1724
2017-10-26T14:33:48.830Z,1680
2017-10-26T14:34:57.466Z,1636
2017-10-26T14:36:06.096Z,1608
2017-10-26T14:37:14.731Z,1588
2017-10-26T14:38:23.694Z,1560
2017-10-26T14:39:32.328Z,1536
2017-10-26T14:40:40.961Z,1508
2017-10-26T14:41:49.592Z,1492
2017-10-26T14:42:58.219Z,1468
2017-10-26T14:44:06.859Z,1444
2017-10-26T14:45:15.821Z,1428
2017-10-26T14:46:24.454Z,1436
2017-10-26T14:47:33.077Z,1448
2017-10-26T14:48:41.712Z,1452
2017-10-26T14:49:50.347Z,1444
2017-10-26T14:50:58.979Z,1436
2017-10-26T14:52:07.615Z,1420
2017-10-26T14:53:16.577Z,1404
2017-10-26T14:54:25.211Z,1400
2017-10-26T14:55:33.848Z,1392
2017-10-26T14:56:42.472Z,1380
2017-10-26T14:57:51.107Z,1364
2017-10-26T14:58:59.741Z,1340
2017-10-26T15:00:08.372Z,1316
2017-10-26T15:01:17.013Z,1284
2017-10-26T15:02:25.645Z,1256
2017-10-26T15:03:34.276Z,1228
2017-10-26T15:04:42.903Z,1204
2017-10-26T15:05:51.541Z,1180
2017-10-26T15:07:00.167Z,1152
2017-10-26T15:08:08.802Z,1112
2017-10-26T15:09:17.431Z,1076
2017-10-26T15:10:26.393Z,1044
2017-10-26T15:11:35.374Z,1020
2017-10-26T15:12:44.006Z,992
2017-10-26T15:13:52.634Z,948
2017-10-26T15:15:01.275Z,888
2017-10-26T15:16:09.904Z,820
2017-10-26T15:17:18.533Z,744
2017-10-26T15:18:27.167Z,668
2017-10-26T15:19:35.799Z,584
2017-10-26T15:20:44.426Z,584
2017-10-26T15:21:53.061Z,632
2017-10-26T15:23:01.690Z,636
2017-10-26T15:24:10.329Z,608
2017-10-26T15:25:18.959Z,604
2017-10-26T15:26:27.589Z,608
2017-10-26T15:27:36.222Z,580
2017-10-26T15:28:44.860Z,560
2017-10-26T15:29:53.479Z,548
2017-10-26T15:31:02.109Z,544
2017-10-26T15:32:10.744Z,524
2017-10-26T15:33:19.368Z,500
2017-10-26T15:34:28.005Z,480
2017-10-26T15:35:36.635Z,472
2017-10-26T15:36:45.266Z,448
2017-10-26T15:37:53.901Z,428
2017-10-26T15:39:02.527Z,412
2017-10-26T15:40:11.157Z,392
2017-10-26T15:41:19.791Z,376
2017-10-26T15:42:28.420Z,356
2017-10-26T15:43:37.056Z,324
2017-10-26T15:44:45.688Z,304
2017-10-26T15:45:54.328Z,284
2017-10-26T15:47:02.958Z,268
2017-10-26T15:48:11.585Z,252
2017-10-26T15:49:20.217Z,232
2017-10-26T15:50:28.850Z,216
2017-10-26T15:51:37.487Z,200
2017-10-26T15:52:46.119Z,184
2017-10-26T15:53:54.748Z,168